createdAt,value
2022-08-28T00:04:10.767Z,46.61007
2022-08-28T00:09:12.387Z,46.11857
2022-08-28T00:14:14.289Z,50.07166
2022-08-28T00:19:16.090Z,48.61807
2022-08-28T00:24:18.221Z,49.05987
2022-08-28T00:29:20.120Z,49.0083
2022-08-28T00:34:28.506Z,49.07797
2022-08-28T00:39:35.074Z,50.81663
2022-08-28T00:44:36.884Z,50.77969
2022-08-28T00:49:38.677Z,49.90527
2022-08-28T00:54:40.626Z,51.05171
2022-08-28T00:59:42.509Z,52.03578
2022-08-28T01:04:44.142Z,50.74564
2022-08-28T01:09:45.649Z,54.22051
2022-08-28T01:14:47.216Z,52.67504
2022-08-28T01:19:48.683Z,52.2603
2022-08-28T01:24:50.503Z,52.10815
2022-08-28T01:29:52.864Z,53.45609
2022-08-28T01:34:54.455Z,53.54771
2022-08-28T01:39:56.198Z,53.41577
2022-08-28T01:44:57.979Z,53.65042
2022-08-28T01:49:59.436Z,53.97079
2022-08-28T01:55:01.368Z,52.91909
2022-08-28T02:00:06.560Z,51.15825
2022-08-28T02:05:08.081Z,51.06081
2022-08-28T02:10:09.612Z,51.38785
2022-08-28T02:15:11.208Z,51.40035
2022-08-28T02:20:12.647Z,51.87951
2022-08-28T02:25:14.436Z,51.13532
2022-08-28T02:30:15.969Z,52.29485
2022-08-28T02:35:17.455Z,50.4671
2022-08-28T02:40:19.117Z,49.73241
2022-08-28T02:45:20.692Z,50.7631
2022-08-28T02:50:22.345Z,51.51792
2022-08-28T02:55:24.128Z,52.0114
2022-08-28T03:00:25.835Z,51.25948
2022-08-28T03:05:27.480Z,52.86623
2022-08-28T03:10:29.367Z,56.57523
2022-08-28T03:15:31.029Z,54.38911
2022-08-28T03:20:32.784Z,52.9276
2022-08-28T03:25:35.000Z,52.96312
2022-08-28T03:30:36.908Z,59.0593
2022-08-28T03:35:38.880Z,62.84467
2022-08-28T03:40:40.845Z,63.52381
2022-08-28T03:45:42.860Z,58.86224
2022-08-28T03:50:44.863Z,57.63209
2022-08-28T03:55:47.663Z,60.25113
2022-08-28T04:00:49.239Z,57.89202
2022-08-28T04:05:50.909Z,59.29239
2022-08-28T04:10:52.359Z,57.99395
2022-08-28T04:15:54.030Z,57.88266
2022-08-28T04:20:55.687Z,61.06681
2022-08-28T04:25:57.521Z,65.18665
2022-08-28T04:30:59.088Z,66.34808
2022-08-28T04:36:00.839Z,68.00069
2022-08-28T04:41:02.731Z,70.50442
2022-08-28T04:46:04.677Z,72.20275
2022-08-28T04:51:06.650Z,65.48106
2022-08-28T04:56:08.728Z,64.86748
2022-08-28T05:01:10.525Z,65.46933
2022-08-28T05:06:12.299Z,64.55552
2022-08-28T05:11:14.124Z,63.61242
2022-08-28T05:16:34.857Z,62.41539
2022-08-28T05:21:36.844Z,63.25216
2022-08-28T05:26:40.185Z,60.61633
2022-08-28T05:31:42.100Z,56.75088
2022-08-28T05:36:43.943Z,56.43569
2022-08-28T05:41:45.878Z,57.46045
2022-08-28T05:46:47.801Z,57.16944
2022-08-28T05:51:49.618Z,56.96408
2022-08-28T05:56:51.629Z,56.66111
2022-08-28T06:01:53.660Z,53.42596
2022-08-28T06:06:55.174Z,52.54693
2022-08-28T06:11:56.669Z,50.52531
2022-08-28T06:16:58.663Z,47.92663
2022-08-28T06:22:00.109Z,45.31736
2022-08-28T06:27:01.898Z,44.56934
2022-08-28T06:32:03.453Z,44.21246
2022-08-28T06:37:05.033Z,44.24087
2022-08-28T06:42:07.149Z,45.40832
2022-08-28T06:47:08.970Z,44.45843
2022-08-28T06:52:10.726Z,43.0418
2022-08-28T06:57:12.771Z,41.68145
2022-08-28T07:02:14.669Z,40.8718
2022-08-28T07:07:31.818Z,39.43454
2022-08-28T07:12:34.240Z,37.08835
2022-08-28T07:17:35.709Z,36.52951
2022-08-28T07:22:37.482Z,35.59393
2022-08-28T07:27:39.211Z,34.11012
2022-08-28T07:32:40.878Z,33.01648
2022-08-28T07:37:42.444Z,33.64542
2022-08-28T07:42:44.354Z,33.08492
2022-08-28T07:47:46.215Z,32.18444
2022-08-28T07:52:48.033Z,29.03879
2022-08-28T07:57:50.127Z,27.06598
2022-08-28T08:02:53.497Z,28.1818
2022-08-28T08:07:54.942Z,23.19075
2022-08-28T08:12:56.391Z,22.51684
2022-08-28T08:17:58.141Z,22.19808
2022-08-28T08:22:59.788Z,20.67326
2022-08-28T08:28:01.550Z,20.70585
2022-08-28T08:33:02.985Z,19.83699
2022-08-28T08:38:04.498Z,19.56704
2022-08-28T08:43:05.968Z,19.2606
2022-08-28T08:48:07.651Z,19.04877
2022-08-28T08:53:12.772Z,18.07161
2022-08-28T08:58:15.162Z,18.33687
2022-08-28T09:03:17.035Z,18.06572
2022-08-28T09:08:18.976Z,17.644
2022-08-28T09:13:22.011Z,17.54843
2022-08-28T09:18:23.785Z,17.09252
2022-08-28T09:23:25.531Z,17.01303
2022-08-28T09:28:31.990Z,16.86089
2022-08-28T09:33:33.768Z,15.90247
2022-08-28T09:38:35.576Z,16.36939
2022-08-28T09:43:37.611Z,16.28606
2022-08-28T09:48:39.593Z,15.55554
2022-08-28T09:53:41.377Z,15.41061
2022-08-28T09:58:43.484Z,15.43978
2022-08-28T10:03:45.242Z,15.37678
2022-08-28T10:08:46.974Z,15.36955
2022-08-28T10:13:48.992Z,16.04986
2022-08-28T10:18:50.711Z,15.76328
2022-08-28T10:23:52.561Z,16.20269
2022-08-28T10:28:55.297Z,15.3496
2022-08-28T10:33:56.737Z,15.55406
2022-08-28T10:38:58.173Z,16.34351
2022-08-28T10:43:59.770Z,15.36773
2022-08-28T10:49:01.370Z,15.88024
2022-08-28T10:54:02.930Z,15.9496
2022-08-28T10:59:05.019Z,15.6898
2022-08-28T11:04:06.980Z,15.22363
2022-08-28T11:09:08.715Z,16.38023
2022-08-28T11:14:10.258Z,15.75169
2022-08-28T11:19:11.855Z,15.94013
2022-08-28T11:24:13.636Z,15.68962
2022-08-28T11:29:15.601Z,15.60362
2022-08-28T11:34:17.517Z,15.46344
2022-08-28T11:39:19.164Z,14.82569
2022-08-28T11:44:20.961Z,15.62867
2022-08-28T11:49:22.829Z,15.14838
2022-08-28T11:54:24.648Z,15.9718
2022-08-28T11:59:35.249Z,15.49746
2022-08-28T12:04:37.456Z,16.05536
2022-08-28T12:09:39.159Z,16.40478
2022-08-28T12:14:41.338Z,16.20015
2022-08-28T12:19:55.504Z,16.00106
2022-08-28T12:24:57.774Z,15.43709
2022-08-28T12:29:59.509Z,15.63817
2022-08-28T12:35:01.391Z,15.51705
2022-08-28T12:40:02.893Z,15.46992
2022-08-28T12:45:04.488Z,15.69815
2022-08-28T12:50:05.914Z,15.69482
2022-08-28T12:55:07.819Z,15.66199
2022-08-28T13:00:10.024Z,15.59546
2022-08-28T13:05:11.803Z,15.11045
2022-08-28T13:10:13.615Z,15.24701
2022-08-28T13:15:15.458Z,14.81523
2022-08-28T13:20:26.217Z,15.07804
2022-08-28T13:25:28.413Z,15.36234
2022-08-28T13:30:30.671Z,15.52581
2022-08-28T13:35:32.455Z,15.75585
2022-08-28T13:40:56.433Z,15.9034
2022-08-28T13:45:59.539Z,15.53139
2022-08-28T13:51:01.060Z,15.33072
2022-08-28T13:56:04.754Z,16.76909
2022-08-28T14:01:06.899Z,15.98299
2022-08-28T14:06:08.400Z,16.16379
2022-08-28T14:11:11.860Z,15.70724
2022-08-28T14:16:14.507Z,15.85553
2022-08-28T14:21:16.438Z,16.31436
2022-08-28T14:26:18.177Z,16.77143
2022-08-28T14:31:20.323Z,16.84718
2022-08-28T14:36:28.062Z,16.66489
2022-08-28T14:41:29.642Z,17.10417
2022-08-28T14:46:31.242Z,16.97056
2022-08-28T14:51:32.696Z,17.05364
2022-08-28T14:56:34.151Z,18.06989
2022-08-28T15:01:39.862Z,17.41872
2022-08-28T15:06:42.644Z,17.11258
2022-08-28T15:11:44.379Z,17.62254
2022-08-28T15:16:46.601Z,18.00691
2022-08-28T15:21:48.243Z,18.37603
2022-08-28T15:26:50.177Z,18.45995
2022-08-28T15:31:52.246Z,18.51116
2022-08-28T15:36:55.609Z,18.27644
2022-08-28T15:41:57.982Z,18.76655
2022-08-28T15:46:59.657Z,19.15768
2022-08-28T15:52:01.097Z,19.77647
2022-08-28T15:57:02.567Z,21.23395
2022-08-28T16:02:04.517Z,21.53367
2022-08-28T16:07:06.376Z,21.27996
2022-08-28T16:12:08.365Z,21.07275
2022-08-28T16:17:10.717Z,21.77306
2022-08-28T16:22:13.190Z,22.16767
2022-08-28T16:27:15.848Z,22.71535
2022-08-28T16:32:18.584Z,22.8381
2022-08-28T16:37:21.121Z,23.60853
2022-08-28T16:42:28.584Z,23.84952
2022-08-28T16:47:32.942Z,24.21684
2022-08-28T16:52:34.834Z,24.11574
2022-08-28T16:57:36.591Z,24.09389
2022-08-28T17:02:38.993Z,24.82552
2022-08-28T17:07:41.058Z,24.82406
2022-08-28T17:12:42.923Z,25.62257
2022-08-28T17:17:45.127Z,26.14163
2022-08-28T17:22:47.012Z,26.61291
2022-08-28T17:27:48.833Z,26.86874
2022-08-28T17:32:50.935Z,26.37068
2022-08-28T17:37:52.884Z,25.52731
2022-08-28T17:42:54.607Z,25.60416
2022-08-28T17:47:56.740Z,26.19179
2022-08-28T17:52:58.264Z,26.60452
2022-08-28T17:57:59.867Z,27.38568
2022-08-28T18:03:01.627Z,28.57018
2022-08-28T18:08:03.134Z,27.78023
2022-08-28T18:13:04.742Z,28.65976
2022-08-28T18:18:06.388Z,28.99608
2022-08-28T18:23:07.821Z,29.39954
2022-08-28T18:28:09.323Z,30.09677
2022-08-28T18:33:15.888Z,30.40226
2022-08-28T18:38:17.601Z,30.34317
2022-08-28T18:43:19.372Z,30.3747
2022-08-28T18:48:21.228Z,30.44302
2022-08-28T18:53:22.906Z,30.94319
2022-08-28T18:58:24.778Z,31.24938
2022-08-28T19:03:26.874Z,30.43859
2022-08-28T19:08:28.559Z,31.57411
2022-08-28T19:13:30.263Z,31.01311
2022-08-28T19:18:32.061Z,31.28259
2022-08-28T19:23:34.335Z,31.26279
2022-08-28T19:28:36.087Z,31.72355
2022-08-28T19:33:37.965Z,32.00833
2022-08-28T19:38:39.794Z,31.80652
2022-08-28T19:43:43.149Z,32.89064
2022-08-28T19:48:45.810Z,33.81606
2022-08-28T19:53:48.309Z,33.92116
2022-08-28T19:58:50.009Z,34.53571
2022-08-28T20:03:51.790Z,34.2719
2022-08-28T20:08:53.439Z,35.0869
2022-08-28T20:13:54.981Z,34.87201
2022-08-28T20:18:56.408Z,34.72461
2022-08-28T20:23:58.262Z,34.95551
2022-08-28T20:28:59.808Z,35.47038
2022-08-28T20:34:01.548Z,34.69885
2022-08-28T20:39:03.004Z,34.621
2022-08-28T20:44:04.480Z,34.49936
2022-08-28T20:49:06.160Z,34.63593
2022-08-28T20:54:07.961Z,35.20798
2022-08-28T20:59:10.210Z,34.65707
2022-08-28T21:04:12.167Z,34.50007
2022-08-28T21:09:13.627Z,34.6998
2022-08-28T21:14:15.048Z,32.72942
2022-08-28T21:19:16.676Z,33.1439
2022-08-28T21:24:18.858Z,34.72096
2022-08-28T21:29:20.315Z,34.53239
2022-08-28T21:34:22.381Z,34.15898
2022-08-28T21:39:23.812Z,33.72378
2022-08-28T21:44:25.792Z,33.70384
2022-08-28T21:49:27.781Z,32.65291
2022-08-28T21:54:29.342Z,31.80923
2022-08-28T21:59:37.672Z,31.19786
2022-08-28T22:04:40.568Z,31.44689
2022-08-28T22:09:42.652Z,30.67148
2022-08-28T22:14:44.952Z,30.47116
2022-08-28T22:19:46.957Z,30.39702
2022-08-28T22:24:49.060Z,30.39832
2022-08-28T22:29:51.013Z,29.54648
2022-08-28T22:34:53.386Z,29.9111
2022-08-28T22:39:55.362Z,29.58539
2022-08-28T22:44:57.426Z,30.0665
2022-08-28T22:49:59.464Z,29.77128
2022-08-28T22:55:00.894Z,29.69041
2022-08-28T23:00:02.864Z,30.76094
2022-08-28T23:05:05.322Z,30.11571
2022-08-28T23:10:06.767Z,29.91459
2022-08-28T23:15:08.825Z,29.83697
2022-08-28T23:20:10.527Z,29.8259
2022-08-28T23:25:12.616Z,30.22432
2022-08-28T23:30:14.440Z,29.62559
2022-08-28T23:35:16.988Z,29.9865
2022-08-28T23:40:18.936Z,31.98882
2022-08-28T23:45:21.324Z,33.68309
2022-08-28T23:50:23.539Z,34.63793
2022-08-28T23:55:26.943Z,34.69064
